• Join FlightAware (Why Join?)
  • Login
  • US Flag 
03:29AM EDT


 

Airport Tracker/Info


-or-


 

Live Flight TrackerFlight Track Log ✈ SKW5542 ✈ 07-May-2013 ✈ CYQT - KORD

Flight Track Log - Related Links

Times and Time Zones

All times are in EDT time to prevent confusion due to time zone crossing. See the SKW5542 flight status page for this flight to view local times or setup timezone preferences in your user account.

Time Position Orientation Groundspeed Altitude Reporting Facility
EDT Latitude Longitude Course Direction KTS MPH feet Rate Location/Type
06:11AM 48.3500 -89.3167 155° Southeast 150 173 2,100  Level Winnipeg Center
06:12AM 48.3167 -89.4000 239° Southwest 200 230 4,000 2,220 Climbing Winnipeg Center
06:13AM 47.9795 -89.0363 156° South  Level FlightAware Approximate
06:13AM 48.2667 -89.4000 180° South 250 288 6,600  Level Winnipeg Center
06:14AM 47.8812 -88.9708 156° South  Level FlightAware Approximate
06:14AM 48.2000 -89.3667 162° South 280 322 10,200  Level Winnipeg Center
06:15AM 47.7821 -88.9137 155° Southeast  Level FlightAware Approximate
06:15AM 48.1167 -89.3000 152° Southeast 290 334 13,100  Level Winnipeg Center
06:16AM 47.6969 -88.8534 155° Southeast  Level FlightAware Approximate
06:16AM 48.0333 -89.2333 152° Southeast 320 368 15,500  Level Winnipeg Center
06:17AM 47.9667 -89.1500 140° Southeast 340 391 17,600 2,160 Climbing Winnipeg Center
06:18AM 47.8667 -89.0833 156° South 350 403 19,900 2,100 Climbing Winnipeg Center
06:19AM 47.7833 -89.0000 146° Southeast 360 414 21,800 1,800 Climbing Winnipeg Center
06:20AM 47.7000 -88.9333 152° Southeast 370 426 23,600 1,500 Climbing Winnipeg Center
06:21AM 47.6000 -88.9333 180° South 380 437 24,900 1,380 Climbing Winnipeg Center
06:21AM 47.5308 -88.9458 187° South 381 438 26,100 1,320 Climbing Minneapolis Center
06:22AM 47.4228 -88.9214 171° South 388 447 27,400 1,200 Climbing Minneapolis Center
06:23AM 47.3125 -88.8992 172° South 397 457 28,600 1,080 Climbing Minneapolis Center
06:24AM 47.1997 -88.8747 172° South 406 467 29,600 960 Climbing Minneapolis Center
06:25AM 47.0858 -88.8508 172° South 412 474 30,600 840 Climbing Minneapolis Center
06:26AM 46.9706 -88.8258 172° South 416 479 31,400 720 Climbing Minneapolis Center
06:27AM 46.8536 -88.8011 172° South 423 487 32,100 660 Climbing Minneapolis Center
06:28AM 46.7358 -88.7767 172° South 426 490 32,800 420 Climbing Minneapolis Center
06:29AM 46.6167 -88.7514 172° South 430 495 33,000 60 Climbing Minneapolis Center
06:30AM 46.5003 -88.7289 172° South 422 486 33,000  Level Minneapolis Center
06:31AM 46.3858 -88.7044 172° South 415 478 33,000  Level Minneapolis Center
06:32AM 46.2739 -88.6811 172° South 406 467 33,000  Level Minneapolis Center
06:33AM 46.1614 -88.6589 172° South 405 466 33,000  Level Minneapolis Center
06:34AM 46.0492 -88.6353 172° South 405 466 33,000  Level Minneapolis Center
06:35AM 45.9381 -88.6131 172° South 401 461 33,000  Level Minneapolis Center
06:36AM 45.8269 -88.5903 172° South 401 461 33,000  Level Minneapolis Center
06:37AM 45.7158 -88.5683 172° South 402 463 33,000  Level Minneapolis Center
06:38AM 45.6061 -88.5453 172° South 399 459 33,000  Level Minneapolis Center
06:39AM 45.4961 -88.5239 172° South 397 457 33,000  Level Minneapolis Center
06:40AM 45.3864 -88.5022 172° South 397 457 33,000  Level Minneapolis Center
06:42AM 45.2914 -88.4831 172° South 395 455 33,000  Level Minneapolis Center
06:43AM 45.1825 -88.4631 173° South 396 456 33,000  Level Minneapolis Center
06:44AM 45.0742 -88.4408 172° South 395 455 33,000  Level Minneapolis Center
06:45AM 44.9558 -88.4178 172° South 395 455 33,000  Level Minneapolis Center
06:46AM 44.8475 -88.3956 172° South 393 452 33,000  Level Minneapolis Center
06:47AM 44.7383 -88.3722 171° South 395 455 33,000  Level Minneapolis Center
06:48AM 44.6297 -88.3539 173° South 392 451 33,000 -1,260 Level Minneapolis Center
06:49AM 44.5147 -88.3311 172° South 416 479 30,500 -2,640 Descending Minneapolis Center
06:50AM 44.3917 -88.3072 172° South 441 507 27,800 -2,700 Descending Minneapolis Center
06:51AM 44.2675 -88.2833 172° South 448 516 25,100 -2,400 Descending Minneapolis Center
06:52AM 44.1453 -88.2597 172° South 444 511 23,000 -1,800 Descending Minneapolis Center
06:53AM 44.0306 -88.2375 172° South 421 484 21,500 -2,040 Descending Minneapolis Center
06:54AM 43.9122 -88.2158 172° South 425 489 19,000 -2,460 Descending Minneapolis Center
06:55AM 43.8006 -88.1942 172° South 408 470 16,600 -2,520 Descending Minneapolis Center
06:56AM 43.6944 -88.1747 172° South 388 447 14,000 -1,920 Descending Minneapolis Center
06:57AM 43.5908 -88.1550 172° South 379 436 13,000 -540 Descending Chicago Center
06:58AM 43.4906 -88.1369 173° South 363 418 13,000  Level Chicago Center
06:59AM 43.3908 -88.1181 172° South 359 413 13,000  Level Chicago Center
07:00AM 43.2906 -88.0942 170° South 361 415 13,000 -540 Level Chicago Center
07:01AM 43.1881 -88.0703 170° South 369 425 12,000 -1,080 Descending Chicago Center
07:02AM 43.0828 -88.0444 170° South 381 438 10,900 -1,020 Descending Chicago Center
07:02AM 43.0333 -88.0500 185° South 368 423 10,500 -660 Descending KMKE
07:03AM 42.9333 -88.0667 187° South 298 343 10,000 -660 Descending KMKE
07:04AM 42.8500 -88.1167 204° Southwest 283 326 9,200 -780 Descending KMKE
07:05AM 42.8314 -88.1411 224° Southwest 285 328 8,800 -840 Descending Chicago Center
07:06AM 42.7603 -88.1911 207° Southwest 286 329 8,000 -420 Descending Chicago Center
07:07AM 42.6869 -88.2175 195° South 288 331 8,000  Level Chicago Center
07:08AM 42.6086 -88.2167 180° South 281 323 8,000  Level Chicago Center
07:09AM 42.5300 -88.2125 178° South 282 325 8,000  Level Chicago Center
07:10AM 42.4514 -88.2094 178° South 282 325 8,000 -420 Level Chicago Center
07:11AM 42.3828 -88.2600 209° Southwest 286 329 7,200 -660 Descending Chicago Center
07:12AM 42.3128 -88.3144 210° Southwest 279 321 6,700 -600 Descending Chicago Center
07:13AM 42.2364 -88.3089 177° South 274 315 6,000 -360 Descending Chicago Center
07:14AM 42.1703 -88.3047 177° South 242 278 6,000  Level Chicago Center
07:15AM 42.1103 -88.3019 178° South 220 253 6,000 -300 Level Chicago Center
07:16AM 42.0575 -88.2989 178° South 198 228 5,500 -780 Descending Chicago Center
07:17AM 42.0047 -88.2958 178° South 191 220 4,500 -780 Descending Chicago Center
07:18AM 41.9717 -88.2306 124° Southeast 183 211 4,000 -300 Descending Chicago Center
07:19AM 41.9689 -88.1667 93° East 178 205 4,000 -180 Level Chicago Center
07:20AM 41.9667 -88.1167 93° East 179 206 3,700 -480 Descending Chicago TRACON